sensor_id;sensor_type;location;lat;lon;timestamp;pressure;altitude;pressure_sealevel;temperature;humidity
6599;BME280;3335;43.198;27.918;2023-02-13T00:00:14;147512.44;;;0.86;100.00
6599;BME280;3335;43.198;27.918;2023-02-13T00:02:42;147549.63;;;1.01;100.00
6599;BME280;3335;43.198;27.918;2023-02-13T00:05:11;147548.38;;;1.01;100.00
6599;BME280;3335;43.198;27.918;2023-02-13T00:07:38;147540.97;;;0.98;100.00
6599;BME280;3335;43.198;27.918;2023-02-13T00:10:06;147544.69;;;0.99;100.00
6599;BME280;3335;43.198;27.918;2023-02-13T00:12:33;147548.38;;;1.01;100.00
6599;BME280;3335;43.198;27.918;2023-02-13T00:15:00;147543.44;;;0.99;100.00
6599;BME280;3335;43.198;27.918;2023-02-13T00:17:27;147523.59;;;0.91;100.00
6599;BME280;3335;43.198;27.918;2023-02-13T00:19:54;147528.56;;;0.93;100.00
6599;BME280;3335;43.198;27.918;2023-02-13T00:22:22;147533.53;;;0.95;100.00
6599;BME280;3335;43.198;27.918;2023-02-13T00:24:50;147524.81;;;0.91;100.00
6599;BME280;3335;43.198;27.918;2023-02-13T00:27:17;147536.00;;;0.96;100.00
6599;BME280;3335;43.198;27.918;2023-02-13T00:29:44;147534.75;;;0.95;100.00
6599;BME280;3335;43.198;27.918;2023-02-13T00:32:11;147531.06;;;0.94;100.00
6599;BME280;3335;43.198;27.918;2023-02-13T00:34:37;147529.81;;;0.93;100.00
6599;BME280;3335;43.198;27.918;2023-02-13T00:37:05;147486.44;;;0.75;100.00
6599;BME280;3335;43.198;27.918;2023-02-13T00:39:33;147518.66;;;0.88;100.00
6599;BME280;3335;43.198;27.918;2023-02-13T00:42:00;147518.66;;;0.88;100.00
6599;BME280;3335;43.198;27.918;2023-02-13T00:44:27;147514.94;;;0.87;100.00
6599;BME280;3335;43.198;27.918;2023-02-13T00:46:54;147511.25;;;0.85;100.00
6599;BME280;3335;43.198;27.918;2023-02-13T00:49:21;147511.25;;;0.85;100.00
6599;BME280;3335;43.198;27.918;2023-02-13T00:51:48;147498.84;;;0.80;100.00
6599;BME280;3335;43.198;27.918;2023-02-13T00:54:15;147497.59;;;0.80;100.00
6599;BME280;3335;43.198;27.918;2023-02-13T00:56:43;147496.34;;;0.79;100.00
6599;BME280;3335;43.198;27.918;2023-02-13T00:59:10;147449.25;;;0.60;100.00
6599;BME280;3335;43.198;27.918;2023-02-13T01:01:37;147483.94;;;0.74;100.00
6599;BME280;3335;43.198;27.918;2023-02-13T01:04:04;147476.47;;;0.71;100.00
6599;BME280;3335;43.198;27.918;2023-02-13T01:06:31;147476.47;;;0.71;100.00
6599;BME280;3335;43.198;27.918;2023-02-13T01:08:58;147469.06;;;0.68;100.00
6599;BME280;3335;43.198;27.918;2023-02-13T01:11:24;147466.56;;;0.67;100.00
6599;BME280;3335;43.198;27.918;2023-02-13T01:13:53;147466.56;;;0.67;100.00
6599;BME280;3335;43.198;27.918;2023-02-13T01:16:20;147461.66;;;0.65;100.00
6599;BME280;3335;43.198;27.918;2023-02-13T01:18:47;147451.75;;;0.61;100.00
6599;BME280;3335;43.198;27.918;2023-02-13T01:21:16;147421.97;;;0.49;100.00
6599;BME280;3335;43.198;27.918;2023-02-13T01:23:43;147430.63;;;0.53;100.00
6599;BME280;3335;43.198;27.918;2023-02-13T01:26:15;147407.09;;;0.43;100.00
6599;BME280;3335;43.198;27.918;2023-02-13T01:28:42;147426.94;;;0.51;100.00
6599;BME280;3335;43.198;27.918;2023-02-13T01:31:10;147429.44;;;0.52;100.00
6599;BME280;3335;43.198;27.918;2023-02-13T01:33:37;147384.78;;;0.34;100.00
6599;BME280;3335;43.198;27.918;2023-02-13T01:36:06;147421.97;;;0.49;100.00
6599;BME280;3335;43.198;27.918;2023-02-13T01:38:33;147368.72;;;0.27;100.00
6599;BME280;3335;43.198;27.918;2023-02-13T01:41:00;147415.78;;;0.47;100.00
6599;BME280;3335;43.198;27.918;2023-02-13T01:43:43;147404.66;;;0.42;100.00
6599;BME280;3335;43.198;27.918;2023-02-13T01:46:14;147392.25;;;0.37;100.00
6599;BME280;3335;43.198;27.918;2023-02-13T01:48:41;147391.00;;;0.36;100.00
6599;BME280;3335;43.198;27.918;2023-02-13T01:51:11;147378.63;;;0.31;100.00
6599;BME280;3335;43.198;27.918;2023-02-13T01:53:44;147374.88;;;0.30;100.00
6599;BME280;3335;43.198;27.918;2023-02-13T01:56:16;147338.94;;;0.15;100.00
6599;BME280;3335;43.198;27.918;2023-02-13T01:58:45;147360.00;;;0.24;100.00
6599;BME280;3335;43.198;27.918;2023-02-13T02:01:14;147350.09;;;0.20;100.00
6599;BME280;3335;43.198;27.918;2023-02-13T02:03:44;147201.50;;;-0.41;100.00
6599;BME280;3335;43.198;27.918;2023-02-13T02:06:20;147335.25;;;0.14;100.00
6599;BME280;3335;43.198;27.918;2023-02-13T02:08:51;147330.28;;;0.12;100.00
6599;BME280;3335;43.198;27.918;2023-02-13T02:11:24;147316.66;;;0.06;100.00
6599;BME280;3335;43.198;27.918;2023-02-13T02:13:53;147330.28;;;0.12;100.00
6599;BME280;3335;43.198;27.918;2023-02-13T02:16:22;147322.88;;;0.09;100.00
6599;BME280;3335;43.198;27.918;2023-02-13T02:18:49;147322.88;;;0.09;100.00
6599;BME280;3335;43.198;27.918;2023-02-13T02:21:40;147322.88;;;0.09;100.00
6599;BME280;3335;43.198;27.918;2023-02-13T02:24:37;147329.06;;;0.11;100.00
6599;BME280;3335;43.198;27.918;2023-02-13T02:27:36;147327.81;;;0.11;100.00
6599;BME280;3335;43.198;27.918;2023-02-13T02:30:42;147320.41;;;0.08;100.00
6599;BME280;3335;43.198;27.918;2023-02-13T02:33:20;147315.41;;;0.06;100.00
6599;BME280;3335;43.198;27.918;2023-02-13T02:36:02;147315.41;;;0.06;100.00
6599;BME280;3335;43.198;27.918;2023-02-13T02:38:42;147308.00;;;0.03;100.00
6599;BME280;3335;43.198;27.918;2023-02-13T02:41:16;147303.03;;;0.00;100.00
6599;BME280;3335;43.198;27.918;2023-02-13T02:44:08;147294.38;;;-0.03;100.00
6599;BME280;3335;43.198;27.918;2023-02-13T02:46:46;147293.13;;;-0.04;100.00
6599;BME280;3335;43.198;27.918;2023-02-13T02:49:37;147286.94;;;-0.06;100.00
6599;BME280;3335;43.198;27.918;2023-02-13T02:52:28;147285.72;;;-0.07;100.00
6599;BME280;3335;43.198;27.918;2023-02-13T02:55:01;147268.34;;;-0.14;100.00
6599;BME280;3335;43.198;27.918;2023-02-13T02:57:37;147259.69;;;-0.17;100.00
6599;BME280;3335;43.198;27.918;2023-02-13T03:00:24;147268.34;;;-0.14;100.00
6599;BME280;3335;43.198;27.918;2023-02-13T03:03:15;147278.28;;;-0.10;100.00
6599;BME280;3335;43.198;27.918;2023-02-13T03:06:06;147298.09;;;-0.02;100.00
6599;BME280;3335;43.198;27.918;2023-02-13T03:08:40;147249.78;;;-0.21;100.00
6599;BME280;3335;43.198;27.918;2023-02-13T03:11:26;147293.13;;;-0.04;100.00
6599;BME280;3335;43.198;27.918;2023-02-13T03:14:14;147293.13;;;-0.04;100.00
6599;BME280;3335;43.198;27.918;2023-02-13T03:16:42;147278.28;;;-0.10;100.00
6599;BME280;3335;43.198;27.918;2023-02-13T03:19:34;147226.25;;;-0.31;100.00
6599;BME280;3335;43.198;27.918;2023-02-13T03:22:28;147247.31;;;-0.22;100.00
6599;BME280;3335;43.198;27.918;2023-02-13T03:25:01;147239.88;;;-0.25;100.00
6599;BME280;3335;43.198;27.918;2023-02-13T03:27:40;147221.28;;;-0.33;100.00
6599;BME280;3335;43.198;27.918;2023-02-13T03:30:34;147211.38;;;-0.37;100.00
6599;BME280;3335;43.198;27.918;2023-02-13T03:33:12;147211.38;;;-0.37;100.00
6599;BME280;3335;43.198;27.918;2023-02-13T03:35:47;147169.31;;;-0.54;100.00
6599;BME280;3335;43.198;27.918;2023-02-13T03:38:38;147161.91;;;-0.57;100.00
6599;BME280;3335;43.198;27.918;2023-02-13T03:41:13;147170.56;;;-0.54;100.00
6599;BME280;3335;43.198;27.918;2023-02-13T03:43:55;147142.06;;;-0.65;100.00
6599;BME280;3335;43.198;27.918;2023-02-13T03:46:25;147184.19;;;-0.48;100.00
6599;BME280;3335;43.198;27.918;2023-02-13T03:48:55;147169.31;;;-0.54;100.00
6599;BME280;3335;43.198;27.918;2023-02-13T03:51:44;147139.56;;;-0.66;100.00
6599;BME280;3335;43.198;27.918;2023-02-13T03:54:20;147159.41;;;-0.58;100.00
6599;BME280;3335;43.198;27.918;2023-02-13T03:57:06;147142.06;;;-0.65;100.00
6599;BME280;3335;43.198;27.918;2023-02-13T03:59:51;147128.44;;;-0.71;100.00
6599;BME280;3335;43.198;27.918;2023-02-13T04:02:24;147134.66;;;-0.68;100.00
6599;BME280;3335;43.198;27.918;2023-02-13T04:04:59;147118.53;;;-0.75;100.00
6599;BME280;3335;43.198;27.918;2023-02-13T04:07:29;147108.63;;;-0.79;100.00
6599;BME280;3335;43.198;27.918;2023-02-13T04:10:00;147107.41;;;-0.79;100.00
6599;BME280;3335;43.198;27.918;2023-02-13T04:12:36;147100.00;;;-0.82;100.00
6599;BME280;3335;43.198;27.918;2023-02-13T04:15:07;147083.88;;;-0.89;100.00
6599;BME280;3335;43.198;27.918;2023-02-13T04:17:42;147080.19;;;-0.91;100.00
6599;BME280;3335;43.198;27.918;2023-02-13T04:20:11;147052.97;;;-1.02;100.00
6599;BME280;3335;43.198;27.918;2023-02-13T04:22:41;147059.13;;;-0.99;100.00
6599;BME280;3335;43.198;27.918;2023-02-13T04:25:11;147078.97;;;-0.91;100.00
6599;BME280;3335;43.198;27.918;2023-02-13T04:27:39;147086.38;;;-0.88;100.00
6599;BME280;3335;43.198;27.918;2023-02-13T04:30:07;147090.09;;;-0.86;100.00
6599;BME280;3335;43.198;27.918;2023-02-13T04:32:34;147082.63;;;-0.90;100.00
6599;BME280;3335;43.198;27.918;2023-02-13T04:35:01;147081.41;;;-0.90;100.00
6599;BME280;3335;43.198;27.918;2023-02-13T04:37:28;147070.25;;;-0.95;100.00
6599;BME280;3335;43.198;27.918;2023-02-13T04:39:55;147070.25;;;-0.95;100.00
6599;BME280;3335;43.198;27.918;2023-02-13T04:42:23;147055.44;;;-1.01;100.00
6599;BME280;3335;43.198;27.918;2023-02-13T04:44:50;147051.72;;;-1.02;100.00
6599;BME280;3335;43.198;27.918;2023-02-13T04:47:17;147050.47;;;-1.03;100.00
6599;BME280;3335;43.198;27.918;2023-02-13T04:49:44;147055.44;;;-1.01;100.00
6599;BME280;3335;43.198;27.918;2023-02-13T04:52:11;147054.19;;;-1.01;100.00
6599;BME280;3335;43.198;27.918;2023-02-13T04:54:39;147043.06;;;-1.06;100.00
6599;BME280;3335;43.198;27.918;2023-02-13T04:57:06;147045.53;;;-1.05;100.00
6599;BME280;3335;43.198;27.918;2023-02-13T04:59:34;147050.47;;;-1.03;100.00
6599;BME280;3335;43.198;27.918;2023-02-13T05:02:01;147035.59;;;-1.09;100.00
6599;BME280;3335;43.198;27.918;2023-02-13T05:04:28;147038.09;;;-1.08;100.00
6599;BME280;3335;43.198;27.918;2023-02-13T05:06:55;147015.81;;;-1.17;100.00
6599;BME280;3335;43.198;27.918;2023-02-13T05:09:22;147030.69;;;-1.11;100.00
6599;BME280;3335;43.198;27.918;2023-02-13T05:11:50;147028.19;;;-1.12;100.00
6599;BME280;3335;43.198;27.918;2023-02-13T05:14:17;147015.81;;;-1.17;100.00
6599;BME280;3335;43.198;27.918;2023-02-13T05:16:46;146846.38;;;-1.86;100.00
6599;BME280;3335;43.198;27.918;2023-02-13T05:19:14;147000.97;;;-1.23;100.00
6599;BME280;3335;43.198;27.918;2023-02-13T05:21:41;146993.56;;;-1.26;100.00
6599;BME280;3335;43.198;27.918;2023-02-13T05:24:25;146978.69;;;-1.32;100.00
6599;BME280;3335;43.198;27.918;2023-02-13T05:26:52;146993.56;;;-1.26;100.00
6599;BME280;3335;43.198;27.918;2023-02-13T05:29:19;146981.19;;;-1.31;100.00
6599;BME280;3335;43.198;27.918;2023-02-13T05:31:50;146991.06;;;-1.27;100.00
6599;BME280;3335;43.198;27.918;2023-02-13T05:34:17;147003.44;;;-1.22;100.00
6599;BME280;3335;43.198;27.918;2023-02-13T05:36:44;147013.34;;;-1.18;100.00
6599;BME280;3335;43.198;27.918;2023-02-13T05:39:11;146991.06;;;-1.27;100.00
6599;BME280;3335;43.198;27.918;2023-02-13T05:41:39;146988.59;;;-1.28;100.00
6599;BME280;3335;43.198;27.918;2023-02-13T05:44:06;146998.53;;;-1.24;100.00
6599;BME280;3335;43.198;27.918;2023-02-13T05:46:33;147003.44;;;-1.22;100.00
6599;BME280;3335;43.198;27.918;2023-02-13T05:49:02;147015.81;;;-1.17;100.00
6599;BME280;3335;43.198;27.918;2023-02-13T05:51:29;147018.31;;;-1.16;100.00
6599;BME280;3335;43.198;27.918;2023-02-13T05:53:56;147020.78;;;-1.15;100.00
6599;BME280;3335;43.198;27.918;2023-02-13T05:56:23;147013.34;;;-1.18;100.00
6599;BME280;3335;43.198;27.918;2023-02-13T05:58:50;147013.34;;;-1.18;100.00
6599;BME280;3335;43.198;27.918;2023-02-13T06:01:18;147025.72;;;-1.13;100.00
6599;BME280;3335;43.198;27.918;2023-02-13T06:03:45;147033.16;;;-1.10;100.00
6599;BME280;3335;43.198;27.918;2023-02-13T06:06:14;147003.44;;;-1.22;100.00
6599;BME280;3335;43.198;27.918;2023-02-13T06:08:41;147050.47;;;-1.03;100.00
6599;BME280;3335;43.198;27.918;2023-02-13T06:11:08;147055.44;;;-1.01;100.00
6599;BME280;3335;43.198;27.918;2023-02-13T06:13:35;147072.75;;;-0.94;100.00
6599;BME280;3335;43.198;27.918;2023-02-13T06:16:05;147083.88;;;-0.89;100.00
6599;BME280;3335;43.198;27.918;2023-02-13T06:18:32;147093.78;;;-0.85;100.00
6599;BME280;3335;43.198;27.918;2023-02-13T06:20:59;147109.88;;;-0.78;100.00
6599;BME280;3335;43.198;27.918;2023-02-13T06:23:28;147117.28;;;-0.75;100.00
6599;BME280;3335;43.198;27.918;2023-02-13T06:25:55;147132.16;;;-0.69;100.00
6599;BME280;3335;43.198;27.918;2023-02-13T06:28:22;147140.81;;;-0.66;100.00
6599;BME280;3335;43.198;27.918;2023-02-13T06:30:49;147154.44;;;-0.60;100.00
6599;BME280;3335;43.198;27.918;2023-02-13T06:33:16;147156.91;;;-0.59;100.00
6599;BME280;3335;43.198;27.918;2023-02-13T06:35:43;147169.31;;;-0.54;100.00
6599;BME280;3335;43.198;27.918;2023-02-13T06:38:09;147181.69;;;-0.49;100.00
6599;BME280;3335;43.198;27.918;2023-02-13T06:40:38;147206.47;;;-0.39;100.00
6599;BME280;3335;43.198;27.918;2023-02-13T06:43:05;147223.78;;;-0.32;100.00
6599;BME280;3335;43.198;27.918;2023-02-13T06:45:31;147251.03;;;-0.21;100.00
6599;BME280;3335;43.198;27.918;2023-02-13T06:47:58;147278.28;;;-0.10;100.00
6599;BME280;3335;43.198;27.918;2023-02-13T06:50:26;147293.13;;;-0.04;100.00
6599;BME280;3335;43.198;27.918;2023-02-13T06:52:53;147305.50;;;0.02;100.00
6599;BME280;3335;43.198;27.918;2023-02-13T06:55:20;147291.88;;;-0.04;100.00
6599;BME280;3335;43.198;27.918;2023-02-13T06:57:48;147285.72;;;-0.07;100.00
6599;BME280;3335;43.198;27.918;2023-02-13T07:00:16;147340.19;;;0.16;100.00
6599;BME280;3335;43.198;27.918;2023-02-13T07:02:45;147331.53;;;0.12;100.00
6599;BME280;3335;43.198;27.918;2023-02-13T07:05:13;147350.09;;;0.20;100.00
6599;BME280;3335;43.198;27.918;2023-02-13T07:07:41;147357.56;;;0.23;100.00
6599;BME280;3335;43.198;27.918;2023-02-13T07:10:11;147383.53;;;0.33;100.00
6599;BME280;3335;43.198;27.918;2023-02-13T07:12:38;147402.16;;;0.41;100.00
6599;BME280;3335;43.198;27.918;2023-02-13T07:15:07;147404.66;;;0.42;100.00
6599;BME280;3335;43.198;27.918;2023-02-13T07:17:34;147439.34;;;0.56;100.00
6599;BME280;3335;43.198;27.918;2023-02-13T07:20:01;147480.22;;;0.73;100.00
6599;BME280;3335;43.198;27.918;2023-02-13T07:22:30;147498.84;;;0.80;100.00
6599;BME280;3335;43.198;27.918;2023-02-13T07:24:57;147536.00;;;0.96;100.00
6599;BME280;3335;43.198;27.918;2023-02-13T07:27:24;147562.03;;;1.06;100.00
6599;BME280;3335;43.198;27.918;2023-02-13T07:29:54;147625.28;;;1.32;100.00
6599;BME280;3335;43.198;27.918;2023-02-13T07:32:22;147668.69;;;1.50;100.00
6599;BME280;3335;43.198;27.918;2023-02-13T07:34:49;147714.56;;;1.68;100.00
6599;BME280;3335;43.198;27.918;2023-02-13T07:37:16;147759.22;;;1.87;100.00
6599;BME280;3335;43.198;27.918;2023-02-13T07:39:43;147786.53;;;1.98;100.00
6599;BME280;3335;43.198;27.918;2023-02-13T07:42:10;147787.78;;;1.98;100.00
6599;BME280;3335;43.198;27.918;2023-02-13T07:44:36;147790.25;;;1.99;100.00
6599;BME280;3335;43.198;27.918;2023-02-13T07:47:03;147806.38;;;2.06;100.00
6599;BME280;3335;43.198;27.918;2023-02-13T07:49:32;147856.00;;;2.26;100.00
6599;BME280;3335;43.198;27.918;2023-02-13T07:51:59;147874.59;;;2.34;100.00
6599;BME280;3335;43.198;27.918;2023-02-13T07:54:27;147870.91;;;2.32;100.00
6599;BME280;3335;43.198;27.918;2023-02-13T07:56:54;147864.69;;;2.30;100.00
6599;BME280;3335;43.198;27.918;2023-02-13T07:59:21;147895.75;;;2.42;100.00
6599;BME280;3335;43.198;27.918;2023-02-13T08:01:48;147895.75;;;2.42;100.00
6599;BME280;3335;43.198;27.918;2023-02-13T08:04:15;147945.38;;;2.62;100.00
6599;BME280;3335;43.198;27.918;2023-02-13T08:06:43;147913.09;;;2.49;100.00
6599;BME280;3335;43.198;27.918;2023-02-13T08:09:17;147925.50;;;2.54;100.00
6599;BME280;3335;43.198;27.918;2023-02-13T08:12:04;147950.34;;;2.64;100.00
6599;BME280;3335;43.198;27.918;2023-02-13T08:14:31;147967.69;;;2.72;100.00
6599;BME280;3335;43.198;27.918;2023-02-13T08:16:59;147995.03;;;2.83;100.00
6599;BME280;3335;43.198;27.918;2023-02-13T08:19:26;147980.13;;;2.77;100.00
6599;BME280;3335;43.198;27.918;2023-02-13T08:21:55;148000.00;;;2.85;100.00
6599;BME280;3335;43.198;27.918;2023-02-13T08:24:22;148032.28;;;2.98;100.00
6599;BME280;3335;43.198;27.918;2023-02-13T08:26:49;148034.78;;;2.99;100.00
6599;BME280;3335;43.198;27.918;2023-02-13T08:29:16;148018.63;;;2.92;100.00
6599;BME280;3335;43.198;27.918;2023-02-13T08:31:43;148039.72;;;3.01;100.00
6599;BME280;3335;43.198;27.918;2023-02-13T08:34:09;148073.25;;;3.15;100.00
6599;BME280;3335;43.198;27.918;2023-02-13T08:36:36;148047.22;;;3.04;100.00
6599;BME280;3335;43.198;27.918;2023-02-13T08:39:05;148054.63;;;3.07;100.00
6599;BME280;3335;43.198;27.918;2023-02-13T08:41:32;148072.00;;;3.14;100.00
6599;BME280;3335;43.198;27.918;2023-02-13T08:44:00;148109.28;;;3.29;100.00
6599;BME280;3335;43.198;27.918;2023-02-13T08:46:27;148124.19;;;3.35;100.00
6599;BME280;3335;43.198;27.918;2023-02-13T08:48:54;148155.22;;;3.48;100.00
6599;BME280;3335;43.198;27.918;2023-02-13T08:51:21;148131.63;;;3.38;100.00
6599;BME280;3335;43.198;27.918;2023-02-13T08:53:48;148134.13;;;3.39;100.00
6599;BME280;3335;43.198;27.918;2023-02-13T08:56:16;148111.75;;;3.30;100.00
6599;BME280;3335;43.198;27.918;2023-02-13T08:58:43;148142.81;;;3.43;100.00
6599;BME280;3335;43.198;27.918;2023-02-13T09:01:10;148136.63;;;3.40;100.00
6599;BME280;3335;43.198;27.918;2023-02-13T09:03:37;148171.41;;;3.55;100.00
6599;BME280;3335;43.198;27.918;2023-02-13T09:06:04;148186.31;;;3.61;100.00
6599;BME280;3335;43.198;27.918;2023-02-13T09:08:31;148171.41;;;3.55;100.00
6599;BME280;3335;43.198;27.918;2023-02-13T09:11:01;148193.75;;;3.64;100.00
6599;BME280;3335;43.198;27.918;2023-02-13T09:13:32;148213.63;;;3.72;100.00
6599;BME280;3335;43.198;27.918;2023-02-13T09:16:00;148198.75;;;3.66;100.00
6599;BME280;3335;43.198;27.918;2023-02-13T09:18:27;148240.97;;;3.83;100.00
6599;BME280;3335;43.198;27.918;2023-02-13T09:20:59;148279.50;;;3.99;100.00
6599;BME280;3335;43.198;27.918;2023-02-13T09:23:29;148298.13;;;4.06;100.00
6599;BME280;3335;43.198;27.918;2023-02-13T09:25:58;148255.91;;;3.89;100.00
6599;BME280;3335;43.198;27.918;2023-02-13T09:28:25;148283.19;;;4.00;100.00
6599;BME280;3335;43.198;27.918;2023-02-13T09:30:53;148278.25;;;3.98;100.00
6599;BME280;3335;43.198;27.918;2023-02-13T09:33:20;148325.50;;;4.17;100.00
6599;BME280;3335;43.198;27.918;2023-02-13T09:35:47;148335.44;;;4.21;100.00
6599;BME280;3335;43.198;27.918;2023-02-13T09:38:14;148366.50;;;4.34;100.00
6599;BME280;3335;43.198;27.918;2023-02-13T09:40:46;148380.16;;;4.39;98.33
6599;BME280;3335;43.198;27.918;2023-02-13T09:43:17;148375.19;;;4.37;96.81
6599;BME280;3335;43.198;27.918;2023-02-13T09:45:48;148410.00;;;4.52;98.97
6599;BME280;3335;43.198;27.918;2023-02-13T09:48:25;148444.81;;;4.66;95.41
6599;BME280;3335;43.198;27.918;2023-02-13T09:50:53;148469.69;;;4.76;96.25
6599;BME280;3335;43.198;27.918;2023-02-13T09:53:22;148454.78;;;4.70;97.96
6599;BME280;3335;43.198;27.918;2023-02-13T09:55:57;148518.19;;;4.96;96.93
6599;BME280;3335;43.198;27.918;2023-02-13T09:58:38;148541.81;;;5.05;97.79
6599;BME280;3335;43.198;27.918;2023-02-13T10:01:17;148581.66;;;5.21;97.53
6599;BME280;3335;43.198;27.918;2023-02-13T10:03:54;148570.44;;;5.17;98.25
6599;BME280;3335;43.198;27.918;2023-02-13T10:06:30;148601.53;;;5.29;97.43
6599;BME280;3335;43.198;27.918;2023-02-13T10:09:04;148661.25;;;5.54;96.34
6599;BME280;3335;43.198;27.918;2023-02-13T10:11:42;148630.16;;;5.41;95.74
6599;BME280;3335;43.198;27.918;2023-02-13T10:14:15;148638.88;;;5.45;96.98
6599;BME280;3335;43.198;27.918;2023-02-13T10:16:45;148681.16;;;5.62;96.66
6599;BME280;3335;43.198;27.918;2023-02-13T10:19:29;148667.47;;;5.56;96.19
6599;BME280;3335;43.198;27.918;2023-02-13T10:22:03;148697.34;;;5.68;94.58
6599;BME280;3335;43.198;27.918;2023-02-13T10:24:34;148762.09;;;5.95;93.40
6599;BME280;3335;43.198;27.918;2023-02-13T10:27:11;148828.09;;;6.22;92.06
6599;BME280;3335;43.198;27.918;2023-02-13T10:29:45;148810.66;;;6.14;91.54
6599;BME280;3335;43.198;27.918;2023-02-13T10:32:48;148855.47;;;6.33;89.57
6599;BME280;3335;43.198;27.918;2023-02-13T10:35:37;148892.84;;;6.48;88.42
6599;BME280;3335;43.198;27.918;2023-02-13T10:38:13;148912.75;;;6.56;87.40
6599;BME280;3335;43.198;27.918;2023-02-13T10:40:50;148936.41;;;6.66;86.34
6599;BME280;3335;43.198;27.918;2023-02-13T10:43:26;148977.53;;;6.82;85.88
6599;BME280;3335;43.198;27.918;2023-02-13T10:45:59;148930.19;;;6.63;86.16
6599;BME280;3335;43.198;27.918;2023-02-13T10:48:38;148990.00;;;6.87;85.20
6599;BME280;3335;43.198;27.918;2023-02-13T10:51:13;148992.50;;;6.88;85.13
6599;BME280;3335;43.198;27.918;2023-02-13T10:53:53;149019.88;;;6.99;83.85
6599;BME280;3335;43.198;27.918;2023-02-13T10:56:26;149019.88;;;6.99;84.87
6599;BME280;3335;43.198;27.918;2023-02-13T10:59:27;149022.38;;;7.00;82.77
6599;BME280;3335;43.198;27.918;2023-02-13T11:02:01;149114.56;;;7.38;81.67
6599;BME280;3335;43.198;27.918;2023-02-13T11:04:29;149074.72;;;7.22;80.86
6599;BME280;3335;43.198;27.918;2023-02-13T11:06:59;149155.72;;;7.55;79.73
6599;BME280;3335;43.198;27.918;2023-02-13T11:09:29;149156.97;;;7.55;78.97
6599;BME280;3335;43.198;27.918;2023-02-13T11:11:58;149211.78;;;7.77;76.76
6599;BME280;3335;43.198;27.918;2023-02-13T11:14:52;149261.66;;;7.98;73.49
6599;BME280;3335;43.198;27.918;2023-02-13T11:17:21;149245.44;;;7.91;73.50
6599;BME280;3335;43.198;27.918;2023-02-13T11:19:51;149246.69;;;7.91;74.33
6599;BME280;3335;43.198;27.918;2023-02-13T11:22:30;149274.16;;;8.03;72.85
6599;BME280;3335;43.198;27.918;2023-02-13T11:25:00;149301.53;;;8.14;72.78
6599;BME280;3335;43.198;27.918;2023-02-13T11:27:31;149319.03;;;8.21;72.24
6599;BME280;3335;43.198;27.918;2023-02-13T11:30:01;149284.09;;;8.07;72.77
6599;BME280;3335;43.198;27.918;2023-02-13T11:32:30;149398.88;;;8.53;71.52
6599;BME280;3335;43.198;27.918;2023-02-13T11:35:16;149323.97;;;8.23;71.79
6599;BME280;3335;43.198;27.918;2023-02-13T11:37:45;149378.94;;;8.45;71.75
6599;BME280;3335;43.198;27.918;2023-02-13T11:40:28;149355.22;;;8.36;72.18
6599;BME280;3335;43.198;27.918;2023-02-13T11:42:56;149376.44;;;8.44;72.57
6599;BME280;3335;43.198;27.918;2023-02-13T11:45:24;149443.78;;;8.71;72.24
6599;BME280;3335;43.198;27.918;2023-02-13T11:47:52;149443.78;;;8.71;70.74
6599;BME280;3335;43.198;27.918;2023-02-13T11:50:25;149487.41;;;8.89;70.63
6599;BME280;3335;43.198;27.918;2023-02-13T11:52:56;149561.06;;;9.19;69.97
6599;BME280;3335;43.198;27.918;2023-02-13T11:55:29;149630.94;;;9.47;68.52
6599;BME280;3335;43.198;27.918;2023-02-13T11:57:59;149615.94;;;9.41;77.81
6599;BME280;3335;43.198;27.918;2023-02-13T12:00:30;149665.88;;;9.61;88.65
6599;BME280;3335;43.198;27.918;2023-02-13T12:03:02;149622.22;;;9.44;93.55
6599;BME280;3335;43.198;27.918;2023-02-13T12:06:00;149632.19;;;9.48;94.01
6599;BME280;3335;43.198;27.918;2023-02-13T12:08:29;149730.84;;;9.88;94.06
6599;BME280;3335;43.198;27.918;2023-02-13T12:10:56;149722.06;;;9.84;93.64
6599;BME280;3335;43.198;27.918;2023-02-13T12:13:27;149690.88;;;9.72;92.91
6599;BME280;3335;43.198;27.918;2023-02-13T12:15:59;149693.38;;;9.73;92.07
6599;BME280;3335;43.198;27.918;2023-02-13T12:18:31;149664.63;;;9.61;92.01
6599;BME280;3335;43.198;27.918;2023-02-13T12:21:04;149655.91;;;9.57;91.56
6599;BME280;3335;43.198;27.918;2023-02-13T12:23:42;149618.44;;;9.42;91.80
6599;BME280;3335;43.198;27.918;2023-02-13T12:26:25;149574.78;;;9.25;90.61
6599;BME280;3335;43.198;27.918;2023-02-13T12:29:18;149603.47;;;9.36;89.35
6599;BME280;3335;43.198;27.918;2023-02-13T12:31:56;149516.13;;;9.01;93.71
6599;BME280;3335;43.198;27.918;2023-02-13T12:37:54;149583.50;;;9.28;91.00
6599;BME280;3335;43.198;27.918;2023-02-13T12:40:38;149605.97;;;9.37;89.93
6599;BME280;3335;43.198;27.918;2023-02-13T12:43:20;149516.13;;;9.01;88.01
6599;BME280;3335;43.198;27.918;2023-02-13T12:45:57;149541.09;;;9.11;88.25
6599;BME280;3335;43.198;27.918;2023-02-13T12:48:34;149541.09;;;9.11;84.82
6599;BME280;3335;43.198;27.918;2023-02-13T12:51:15;149576.03;;;9.25;83.51
6599;BME280;3335;43.198;27.918;2023-02-13T12:54:04;149635.94;;;9.49;84.54
6599;BME280;3335;43.198;27.918;2023-02-13T12:59:42;149633.44;;;9.48;79.17
6599;BME280;3335;43.198;27.918;2023-02-13T13:02:44;149657.16;;;9.58;80.87
6599;BME280;3335;43.198;27.918;2023-02-13T13:05:19;149678.38;;;9.66;74.22
6599;BME280;3335;43.198;27.918;2023-02-13T13:08:21;149672.16;;;9.64;71.45
6599;BME280;3335;43.198;27.918;2023-02-13T13:11:00;149698.34;;;9.75;67.92
6599;BME280;3335;43.198;27.918;2023-02-13T13:13:43;149660.91;;;9.59;65.31
6599;BME280;3335;43.198;27.918;2023-02-13T13:16:18;149628.44;;;9.46;70.88
6599;BME280;3335;43.198;27.918;2023-02-13T13:18:58;149602.25;;;9.36;82.99
6599;BME280;3335;43.198;27.918;2023-02-13T13:21:34;149578.53;;;9.26;85.74
6599;BME280;3335;43.198;27.918;2023-02-13T13:24:10;149577.28;;;9.26;83.32
6599;BME280;3335;43.198;27.918;2023-02-13T13:26:43;149543.59;;;9.12;81.28
6599;BME280;3335;43.198;27.918;2023-02-13T13:29:18;149513.63;;;9.00;77.79
6599;BME280;3335;43.198;27.918;2023-02-13T13:31:51;149489.94;;;8.90;74.10